createdAt,value
2023-03-05T00:01:28.025Z,3.22
2023-03-05T00:03:58.226Z,3.30
2023-03-05T00:06:27.642Z,2.97
2023-03-05T00:08:58.387Z,2.97
2023-03-05T00:11:29.735Z,2.75
2023-03-05T00:13:57.998Z,3.00
2023-03-05T00:16:28.639Z,3.20
2023-03-05T00:18:57.241Z,3.13
2023-03-05T00:21:31.887Z,3.60
2023-03-05T00:24:03.710Z,3.20
2023-03-05T00:26:34.372Z,3.60
2023-03-05T00:29:01.970Z,3.38
2023-03-05T00:31:32.015Z,3.40
2023-03-05T00:34:02.942Z,3.88
2023-03-05T00:36:30.546Z,5.78
2023-03-05T00:38:58.889Z,6.82
2023-03-05T00:41:26.610Z,6.20
2023-03-05T00:43:54.274Z,5.20
2023-03-05T00:46:21.919Z,6.63
2023-03-05T00:48:51.712Z,4.40
2023-03-05T00:51:19.298Z,4.47
2023-03-05T00:53:47.896Z,4.10
2023-03-05T00:56:15.339Z,5.10
2023-03-05T00:58:42.765Z,5.30
2023-03-05T01:01:10.469Z,5.32
2023-03-05T01:03:38.048Z,4.78
2023-03-05T01:06:08.560Z,4.68
2023-03-05T01:08:38.653Z,4.60
2023-03-05T01:11:06.839Z,5.03
2023-03-05T01:13:34.853Z,4.25
2023-03-05T01:16:05.853Z,4.88
2023-03-05T01:18:34.569Z,4.43
2023-03-05T01:21:02.123Z,5.00
2023-03-05T01:23:29.493Z,3.88
2023-03-05T01:26:06.655Z,4.90
2023-03-05T01:28:34.286Z,4.20
2023-03-05T01:31:02.745Z,4.38
2023-03-05T01:33:30.329Z,4.82
2023-03-05T01:36:00.155Z,5.45
2023-03-05T01:38:27.579Z,4.20
2023-03-05T01:40:55.052Z,4.68
2023-03-05T01:43:31.882Z,4.20
2023-03-05T01:46:34.673Z,4.68
2023-03-05T01:49:23.356Z,4.80
2023-03-05T01:52:02.690Z,4.90
2023-03-05T01:54:42.872Z,4.93
2023-03-05T01:57:17.055Z,4.10
2023-03-05T01:59:46.374Z,4.30
2023-03-05T02:02:14.084Z,5.07
2023-03-05T02:04:46.267Z,5.50
2023-03-05T02:07:14.634Z,4.95
2023-03-05T02:09:42.536Z,3.70
2023-03-05T02:12:11.742Z,4.40
2023-03-05T02:14:40.291Z,3.35
2023-03-05T02:17:09.453Z,3.22
2023-03-05T02:19:55.372Z,3.47
2023-03-05T02:22:24.418Z,3.95
2023-03-05T02:24:52.476Z,3.67
2023-03-05T02:27:23.282Z,3.45
2023-03-05T02:29:52.294Z,3.40
2023-03-05T02:32:19.929Z,3.22
2023-03-05T02:34:47.632Z,3.65
2023-03-05T02:37:15.062Z,4.20
2023-03-05T02:39:42.510Z,3.95
2023-03-05T02:42:09.992Z,4.85
2023-03-05T02:44:37.459Z,3.90
2023-03-05T02:47:07.198Z,3.55
2023-03-05T02:49:36.859Z,3.83
2023-03-05T02:52:04.354Z,3.63
2023-03-05T02:54:33.204Z,3.55
2023-03-05T02:57:01.906Z,3.90
2023-03-05T02:59:29.492Z,3.83
2023-03-05T03:01:59.288Z,3.67
2023-03-05T03:04:26.734Z,3.80
2023-03-05T03:06:54.301Z,4.00
2023-03-05T03:09:23.825Z,3.70
2023-03-05T03:11:51.260Z,4.10
2023-03-05T03:14:18.771Z,4.70
2023-03-05T03:16:46.822Z,4.60
2023-03-05T03:19:14.433Z,4.55
2023-03-05T03:21:42.072Z,4.20
2023-03-05T03:24:11.166Z,4.82
2023-03-05T03:26:41.237Z,4.93
2023-03-05T03:29:08.617Z,4.93
2023-03-05T03:31:36.524Z,5.03
2023-03-05T03:34:04.225Z,4.85
2023-03-05T03:36:32.242Z,4.80
2023-03-05T03:38:59.545Z,4.65
2023-03-05T03:41:27.016Z,4.10
2023-03-05T03:43:54.380Z,4.95
2023-03-05T03:46:22.028Z,5.35
2023-03-05T03:48:52.645Z,5.43
2023-03-05T03:51:20.231Z,5.53
2023-03-05T03:53:48.221Z,5.85
2023-03-05T03:56:16.816Z,5.93
2023-03-05T03:58:44.493Z,5.25
2023-03-05T04:01:12.008Z,5.15
2023-03-05T04:03:39.620Z,4.88
2023-03-05T04:06:07.251Z,5.15
2023-03-05T04:08:34.632Z,5.63
2023-03-05T04:11:02.430Z,4.93
2023-03-05T04:13:30.369Z,4.75
2023-03-05T04:15:58.414Z,4.45
2023-03-05T04:18:26.027Z,4.70
2023-03-05T04:20:57.008Z,4.55
2023-03-05T04:23:24.408Z,4.63
2023-03-05T04:25:51.754Z,4.55
2023-03-05T04:28:19.156Z,5.00
2023-03-05T04:30:46.749Z,5.60
2023-03-05T04:33:14.227Z,5.45
2023-03-05T04:35:44.012Z,5.35
2023-03-05T04:38:11.726Z,4.45
2023-03-05T04:40:39.632Z,4.47
2023-03-05T04:43:07.374Z,5.30
2023-03-05T04:45:35.064Z,5.85
2023-03-05T04:48:02.503Z,5.70
2023-03-05T04:50:29.863Z,6.88
2023-03-05T04:52:57.233Z,7.15
2023-03-05T04:55:24.739Z,6.60
2023-03-05T04:57:52.156Z,7.20
2023-03-05T05:00:21.027Z,6.78
2023-03-05T05:02:50.694Z,6.55
2023-03-05T05:05:22.038Z,6.90
2023-03-05T05:07:55.618Z,7.78
2023-03-05T05:10:24.407Z,7.88
2023-03-05T05:12:51.788Z,7.00
2023-03-05T05:15:19.560Z,7.80
2023-03-05T05:17:47.721Z,7.85
2023-03-05T05:20:16.661Z,7.63
2023-03-05T05:22:44.482Z,8.30
2023-03-05T05:25:13.207Z,7.57
2023-03-05T05:27:41.200Z,7.28
2023-03-05T05:30:09.516Z,8.30
2023-03-05T05:32:36.964Z,9.00
2023-03-05T05:35:04.551Z,8.18
2023-03-05T05:37:32.188Z,8.35
2023-03-05T05:39:59.560Z,8.70
2023-03-05T05:42:27.031Z,9.40
2023-03-05T05:44:55.616Z,8.30
2023-03-05T05:47:23.042Z,9.02
2023-03-05T05:49:50.401Z,8.65
2023-03-05T05:52:18.440Z,8.10
2023-03-05T05:54:45.841Z,7.78
2023-03-05T05:57:13.132Z,8.05
2023-03-05T05:59:41.055Z,6.05
2023-03-05T06:02:08.450Z,5.88
2023-03-05T06:04:36.061Z,5.15
2023-03-05T06:07:03.851Z,5.60
2023-03-05T06:09:31.260Z,6.53
2023-03-05T06:11:58.615Z,5.90
2023-03-05T06:14:26.018Z,5.60
2023-03-05T06:16:53.502Z,5.70
2023-03-05T06:19:20.918Z,5.70
2023-03-05T06:21:48.271Z,5.43
2023-03-05T06:24:15.655Z,5.93
2023-03-05T06:26:43.041Z,5.05
2023-03-05T06:29:12.075Z,5.70
2023-03-05T06:31:40.166Z,5.93
2023-03-05T06:34:07.624Z,5.93
2023-03-05T06:36:35.087Z,6.32
2023-03-05T06:39:03.876Z,5.63
2023-03-05T06:41:32.844Z,5.97
2023-03-05T06:44:05.035Z,6.28
2023-03-05T06:46:35.472Z,6.28
2023-03-05T06:49:04.092Z,5.22
2023-03-05T06:51:34.401Z,5.45
2023-03-05T06:54:07.427Z,5.28
2023-03-05T06:56:38.399Z,5.00
2023-03-05T06:59:06.501Z,6.05
2023-03-05T07:01:37.102Z,6.22
2023-03-05T07:04:08.486Z,6.40
2023-03-05T07:06:38.315Z,7.30
2023-03-05T07:09:07.285Z,6.32
2023-03-05T07:11:34.789Z,5.85
2023-03-05T07:14:02.636Z,6.45
2023-03-05T07:16:32.924Z,5.95
2023-03-05T07:19:02.988Z,6.43
2023-03-05T07:21:32.237Z,7.10
2023-03-05T07:24:01.627Z,7.07
2023-03-05T07:26:33.639Z,7.30
2023-03-05T07:29:01.604Z,6.57
2023-03-05T07:31:31.074Z,5.70
2023-03-05T07:34:00.057Z,6.43
2023-03-05T07:36:27.858Z,6.25
2023-03-05T07:38:55.580Z,5.68
2023-03-05T07:41:23.780Z,5.65
2023-03-05T07:43:53.177Z,5.28
2023-03-05T07:46:26.431Z,5.80
2023-03-05T07:48:56.972Z,5.53
2023-03-05T07:51:26.758Z,5.53
2023-03-05T07:53:56.216Z,4.82
2023-03-05T07:56:32.743Z,4.95
2023-03-05T07:59:01.923Z,4.40
2023-03-05T08:01:31.266Z,4.13
2023-03-05T08:04:00.010Z,3.78
2023-03-05T08:06:28.465Z,3.53
2023-03-05T08:08:56.158Z,3.58
2023-03-05T08:11:23.655Z,3.58
2023-03-05T08:13:59.147Z,2.75
2023-03-05T08:16:27.286Z,2.38
2023-03-05T08:18:57.176Z,2.22
2023-03-05T08:21:37.163Z,2.30
2023-03-05T08:24:07.560Z,2.10
2023-03-05T08:26:39.776Z,1.63
2023-03-05T08:29:09.436Z,1.80
2023-03-05T08:31:37.307Z,1.48
2023-03-05T08:34:06.228Z,1.50
2023-03-05T08:36:33.701Z,1.48
2023-03-05T08:39:01.214Z,1.60
2023-03-05T08:41:28.743Z,1.30
2023-03-05T08:43:56.163Z,1.30
2023-03-05T08:46:23.930Z,1.40
2023-03-05T08:48:51.538Z,1.52
2023-03-05T08:51:27.961Z,1.25
2023-03-05T08:53:56.578Z,1.25
2023-03-05T08:56:28.436Z,1.20
2023-03-05T08:58:55.781Z,1.35
2023-03-05T09:01:24.102Z,1.38
2023-03-05T09:03:51.675Z,1.52
2023-03-05T09:06:19.185Z,1.70
2023-03-05T09:08:52.492Z,1.65
2023-03-05T09:11:20.118Z,1.35
2023-03-05T09:13:47.541Z,1.60
2023-03-05T09:16:17.180Z,1.77
2023-03-05T09:18:48.255Z,1.40
2023-03-05T09:21:17.534Z,1.55
2023-03-05T09:23:47.296Z,1.40
2023-03-05T09:26:16.466Z,1.45
2023-03-05T09:28:43.856Z,1.90
2023-03-05T09:31:12.086Z,2.10
2023-03-05T09:33:40.442Z,1.50
2023-03-05T09:36:32.536Z,1.25
2023-03-05T09:38:59.992Z,1.90
2023-03-05T09:41:27.338Z,1.60
2023-03-05T09:44:32.812Z,1.40
2023-03-05T09:47:06.578Z,1.70
2023-03-05T09:49:34.250Z,1.50
2023-03-05T09:52:16.876Z,1.65
2023-03-05T09:54:46.180Z,1.60
2023-03-05T09:57:24.364Z,1.60
2023-03-05T09:59:56.486Z,1.80
2023-03-05T10:02:32.474Z,2.17
2023-03-05T10:05:26.530Z,1.50
2023-03-05T10:08:03.824Z,1.20
2023-03-05T10:10:37.258Z,1.40
2023-03-05T10:13:16.912Z,1.40
2023-03-05T10:16:09.004Z,1.63
2023-03-05T10:19:01.584Z,1.00
2023-03-05T10:21:36.181Z,1.23
2023-03-05T10:24:43.612Z,1.50
2023-03-05T10:27:54.591Z,1.00
2023-03-05T10:30:48.727Z,0.98
2023-03-05T10:33:34.923Z,1.40
2023-03-05T10:36:37.208Z,1.10
2023-03-05T10:39:26.271Z,0.82
2023-03-05T10:41:56.937Z,0.90
2023-03-05T10:44:48.298Z,1.00
2023-03-05T10:47:34.968Z,1.00
2023-03-05T10:50:02.336Z,0.90
2023-03-05T10:52:41.366Z,1.08
2023-03-05T10:55:19.605Z,1.00
2023-03-05T10:57:50.330Z,1.20
2023-03-05T11:00:18.252Z,1.10
2023-03-05T11:03:00.036Z,0.70
2023-03-05T11:05:43.147Z,1.10
2023-03-05T11:08:37.249Z,0.80
2023-03-05T11:11:04.616Z,0.90
2023-03-05T11:13:34.906Z,1.08
2023-03-05T11:16:05.181Z,1.45
2023-03-05T11:18:37.796Z,1.40
2023-03-05T11:21:21.009Z,1.00
2023-03-05T11:24:26.563Z,0.85
2023-03-05T11:26:57.060Z,0.70
2023-03-05T11:29:31.899Z,0.70
2023-03-05T11:32:37.505Z,0.93
2023-03-05T11:35:30.942Z,0.70
2023-03-05T11:41:10.476Z,0.70
2023-03-05T11:43:41.885Z,0.40
2023-03-05T11:46:11.562Z,0.73
2023-03-05T11:48:42.166Z,0.85
2023-03-05T11:51:29.602Z,1.33
2023-03-05T11:54:01.937Z,1.20
2023-03-05T11:56:41.465Z,0.98
2023-03-05T11:59:30.353Z,0.90
2023-03-05T12:01:58.732Z,1.10
2023-03-05T12:04:27.472Z,1.20
2023-03-05T12:06:58.103Z,1.20
2023-03-05T12:09:51.188Z,1.05
2023-03-05T12:12:58.950Z,1.00
2023-03-05T12:15:52.436Z,1.17
2023-03-05T12:18:35.615Z,1.00
2023-03-05T12:27:22.043Z,1.20
2023-03-05T12:29:51.455Z,1.17
2023-03-05T12:32:28.218Z,1.40
2023-03-05T12:35:06.319Z,1.20
2023-03-05T12:37:35.154Z,1.10
2023-03-05T12:40:09.606Z,1.27
2023-03-05T12:42:44.331Z,1.20
2023-03-05T12:45:11.768Z,0.93
2023-03-05T12:47:44.056Z,1.17
2023-03-05T12:50:31.488Z,0.80
2023-03-05T12:53:26.709Z,0.93
2023-03-05T12:55:58.501Z,1.35
2023-03-05T12:58:47.944Z,1.08
2023-03-05T13:01:33.594Z,1.08
2023-03-05T13:04:12.054Z,0.80
2023-03-05T13:06:40.635Z,1.20
2023-03-05T13:09:27.493Z,1.40
2023-03-05T13:11:57.333Z,1.13
2023-03-05T13:14:46.259Z,1.30
2023-03-05T13:17:28.482Z,1.30
2023-03-05T13:19:56.907Z,1.27
2023-03-05T13:22:25.734Z,2.00
2023-03-05T13:25:27.438Z,2.55
2023-03-05T13:28:04.242Z,1.75
2023-03-05T13:30:33.665Z,1.75
2023-03-05T13:33:06.393Z,1.92
2023-03-05T13:35:35.477Z,1.50
2023-03-05T13:38:03.803Z,1.85
2023-03-05T13:40:32.617Z,2.17
2023-03-05T13:43:19.112Z,2.58
2023-03-05T13:45:56.978Z,2.10
2023-03-05T13:48:26.380Z,1.55
2023-03-05T13:51:06.521Z,1.40
2023-03-05T13:53:35.378Z,1.30
2023-03-05T13:56:09.474Z,1.35
2023-03-05T13:59:06.456Z,1.45
2023-03-05T14:01:36.943Z,1.33
2023-03-05T14:04:18.968Z,2.10
2023-03-05T14:07:18.782Z,2.00
2023-03-05T14:09:49.252Z,1.77
2023-03-05T14:12:36.483Z,2.00
2023-03-05T14:18:12.392Z,1.80
2023-03-05T14:21:04.298Z,1.83
2023-03-05T14:23:58.116Z,2.92
2023-03-05T14:32:25.607Z,3.20
2023-03-05T14:34:59.448Z,2.42
2023-03-05T14:37:49.208Z,2.25
2023-03-05T14:40:28.798Z,1.80
2023-03-05T14:43:19.378Z,1.83
2023-03-05T14:45:48.859Z,2.00
2023-03-05T14:48:22.065Z,1.42
2023-03-05T14:50:57.221Z,1.27
2023-03-05T14:53:48.815Z,1.60
2023-03-05T14:56:27.765Z,1.40
2023-03-05T14:59:02.626Z,1.60
2023-03-05T15:01:31.892Z,1.70
2023-03-05T15:04:02.206Z,1.63
2023-03-05T15:06:36.738Z,1.60
2023-03-05T15:09:05.317Z,1.27
2023-03-05T15:11:39.284Z,1.60
2023-03-05T15:14:08.657Z,1.50
2023-03-05T15:16:37.138Z,1.60
2023-03-05T15:19:05.776Z,1.27
2023-03-05T15:21:35.782Z,1.30
2023-03-05T15:24:03.812Z,2.05
2023-03-05T15:26:31.172Z,1.70
2023-03-05T15:28:58.551Z,1.50
2023-03-05T15:31:25.941Z,2.00
2023-03-05T15:33:54.459Z,1.90
2023-03-05T15:36:22.081Z,2.17
2023-03-05T15:38:51.272Z,1.83
2023-03-05T15:41:22.687Z,1.98
2023-03-05T15:43:52.287Z,1.67
2023-03-05T15:46:19.774Z,1.52
2023-03-05T15:49:00.408Z,2.20
2023-03-05T15:51:28.776Z,1.65
2023-03-05T15:53:59.773Z,1.60
2023-03-05T15:56:31.439Z,1.70
2023-03-05T15:59:00.848Z,2.33
2023-03-05T16:01:30.394Z,4.20
2023-03-05T16:04:09.586Z,3.30
2023-03-05T16:06:38.323Z,2.15
2023-03-05T16:09:07.162Z,1.77
2023-03-05T16:11:38.467Z,2.15
2023-03-05T16:14:08.969Z,2.00
2023-03-05T16:16:36.537Z,1.85
2023-03-05T16:19:06.698Z,2.50
2023-03-05T16:21:34.117Z,3.67
2023-03-05T16:24:01.833Z,3.08
2023-03-05T16:26:31.778Z,2.60
2023-03-05T16:29:03.366Z,2.03
2023-03-05T16:31:34.031Z,1.90
2023-03-05T16:34:02.058Z,2.20
2023-03-05T16:36:30.598Z,2.55
2023-03-05T16:39:00.299Z,2.75
2023-03-05T16:41:27.936Z,2.47
2023-03-05T16:43:59.413Z,2.90
2023-03-05T16:46:29.497Z,2.70
2023-03-05T16:48:58.657Z,2.60
2023-03-05T16:51:26.502Z,3.00
2023-03-05T16:53:55.699Z,2.88
2023-03-05T16:56:30.982Z,3.28
2023-03-05T16:59:01.022Z,2.70
2023-03-05T17:01:32.677Z,2.88
2023-03-05T17:04:08.443Z,2.10
2023-03-05T17:06:37.200Z,2.50
2023-03-05T17:09:08.926Z,3.00
2023-03-05T17:11:40.103Z,3.33
2023-03-05T17:14:15.185Z,1.92
2023-03-05T17:16:42.700Z,1.80
2023-03-05T17:19:13.539Z,1.98
2023-03-05T17:21:56.049Z,1.90
2023-03-05T17:24:28.162Z,2.55
2023-03-05T17:26:55.904Z,2.65
2023-03-05T17:29:29.516Z,2.50
2023-03-05T17:32:06.501Z,3.00
2023-03-05T17:34:45.319Z,2.63
2023-03-05T17:37:39.486Z,2.05
2023-03-05T17:40:10.130Z,1.85
2023-03-05T17:42:37.772Z,1.70
2023-03-05T17:45:07.074Z,1.83
2023-03-05T17:47:35.044Z,1.50
2023-03-05T17:50:03.100Z,1.90
2023-03-05T17:53:27.871Z,2.15
2023-03-05T17:55:55.235Z,2.65
2023-03-05T17:58:22.841Z,2.00
2023-03-05T18:00:52.766Z,2.17
2023-03-05T18:03:20.269Z,2.65
2023-03-05T18:05:47.895Z,4.50
2023-03-05T18:08:15.293Z,4.82
2023-03-05T18:10:42.791Z,4.20
2023-03-05T18:13:10.322Z,3.60
2023-03-05T18:15:41.693Z,3.10
2023-03-05T18:18:09.178Z,2.45
2023-03-05T18:20:41.806Z,3.45
2023-03-05T18:23:10.957Z,3.22
2023-03-05T18:25:38.390Z,2.65
2023-03-05T18:28:15.854Z,3.30
2023-03-05T18:30:51.285Z,2.60
2023-03-05T18:33:29.055Z,2.40
2023-03-05T18:36:00.952Z,2.13
2023-03-05T18:38:36.912Z,3.92
2023-03-05T18:44:19.731Z,2.00
2023-03-05T18:46:53.073Z,2.17
2023-03-05T18:49:33.174Z,2.20
2023-03-05T18:52:00.845Z,2.20
2023-03-05T18:54:29.835Z,2.60
2023-03-05T18:57:01.391Z,2.20
2023-03-05T18:59:33.726Z,2.30
2023-03-05T19:02:05.045Z,1.92
2023-03-05T19:04:35.365Z,2.00
2023-03-05T19:07:04.590Z,2.13
2023-03-05T19:10:03.491Z,2.53
2023-03-05T19:13:06.547Z,2.10
2023-03-05T19:15:36.245Z,2.88
2023-03-05T19:18:05.894Z,2.58
2023-03-05T19:20:33.386Z,2.55
2023-03-05T19:23:00.722Z,2.55
2023-03-05T19:25:28.298Z,2.92
2023-03-05T19:27:55.725Z,2.75
2023-03-05T19:30:23.292Z,2.50
2023-03-05T19:32:51.683Z,2.58
2023-03-05T19:35:20.857Z,2.90
2023-03-05T19:37:49.027Z,3.15
2023-03-05T19:40:16.640Z,2.83
2023-03-05T19:42:44.629Z,4.30
2023-03-05T19:45:12.556Z,7.15
2023-03-05T19:47:40.020Z,6.00
2023-03-05T19:50:08.518Z,3.13
2023-03-05T19:52:39.083Z,7.93
2023-03-05T19:55:07.802Z,7.10
2023-03-05T19:57:40.699Z,4.00
2023-03-05T20:00:09.537Z,3.35
2023-03-05T20:02:39.686Z,2.70
2023-03-05T20:05:07.948Z,2.90
2023-03-05T20:07:36.515Z,2.85
2023-03-05T20:10:07.388Z,2.80
2023-03-05T20:12:39.262Z,2.90
2023-03-05T20:15:12.021Z,3.13
2023-03-05T20:17:43.292Z,3.17
2023-03-05T20:20:20.879Z,3.00
2023-03-05T20:22:51.127Z,2.80
2023-03-05T20:25:33.071Z,2.88
2023-03-05T20:28:02.113Z,3.15
2023-03-05T20:30:32.017Z,2.80
2023-03-05T20:32:59.321Z,2.95
2023-03-05T20:35:26.851Z,2.63
2023-03-05T20:38:23.644Z,2.75
2023-03-05T20:43:47.405Z,3.40
2023-03-05T20:46:27.249Z,3.58
2023-03-05T20:48:57.672Z,3.30
2023-03-05T20:51:27.686Z,4.15
2023-03-05T20:53:58.708Z,4.38
2023-03-05T20:56:27.989Z,4.20
2023-03-05T20:58:58.209Z,4.47
2023-03-05T21:01:26.689Z,4.00
2023-03-05T21:03:57.096Z,3.38
2023-03-05T21:06:25.700Z,3.47
2023-03-05T21:08:53.406Z,3.60
2023-03-05T21:11:20.849Z,3.30
2023-03-05T21:13:48.452Z,3.55
2023-03-05T21:16:22.496Z,3.35
2023-03-05T21:18:51.106Z,3.90
2023-03-05T21:21:18.675Z,4.60
2023-03-05T21:23:46.143Z,4.97
2023-03-05T21:26:13.736Z,6.43
2023-03-05T21:28:41.278Z,7.28
2023-03-05T21:31:11.378Z,7.15
2023-03-05T21:33:38.963Z,8.13
2023-03-05T21:36:07.283Z,7.43
2023-03-05T21:38:34.778Z,8.40
2023-03-05T21:41:05.964Z,7.97
2023-03-05T21:43:33.662Z,8.10
2023-03-05T21:46:03.086Z,8.80
2023-03-05T21:48:31.262Z,7.97
2023-03-05T21:50:58.897Z,8.35
2023-03-05T21:53:26.497Z,9.05
2023-03-05T21:56:31.047Z,8.57
2023-03-05T21:58:58.471Z,9.32
2023-03-05T22:01:25.895Z,9.48
2023-03-05T22:03:53.955Z,9.32
2023-03-05T22:06:22.667Z,9.52
2023-03-05T22:08:50.060Z,9.57
2023-03-05T22:11:19.148Z,9.20
2023-03-05T22:13:46.500Z,8.77
2023-03-05T22:16:23.018Z,8.75
2023-03-05T22:18:50.474Z,7.85
2023-03-05T22:21:23.765Z,8.02
2023-03-05T22:23:53.696Z,8.20
2023-03-05T22:26:21.430Z,6.72
2023-03-05T22:28:48.769Z,6.47
2023-03-05T22:31:24.168Z,6.28
2023-03-05T22:33:51.967Z,5.65
2023-03-05T22:36:19.985Z,5.70
2023-03-05T22:38:47.333Z,5.93
2023-03-05T22:41:16.306Z,5.75
2023-03-05T22:43:44.003Z,6.28
2023-03-05T22:46:14.059Z,5.32
2023-03-05T22:48:43.519Z,5.75
2023-03-05T22:51:11.688Z,6.43
2023-03-05T22:53:39.643Z,6.05
2023-03-05T22:56:08.941Z,6.03
2023-03-05T22:58:36.718Z,6.20
2023-03-05T23:01:16.549Z,5.72
2023-03-05T23:04:49.159Z,6.35
2023-03-05T23:07:23.282Z,6.18
2023-03-05T23:09:59.314Z,6.20
2023-03-05T23:12:29.284Z,6.50
2023-03-05T23:14:58.757Z,7.95
2023-03-05T23:17:26.102Z,10.25
2023-03-05T23:19:53.489Z,7.75
2023-03-05T23:22:21.200Z,6.88
2023-03-05T23:24:48.525Z,6.80
2023-03-05T23:27:17.302Z,7.10
2023-03-05T23:30:21.769Z,6.80
2023-03-05T23:32:58.181Z,6.43
2023-03-05T23:35:35.060Z,6.55
2023-03-05T23:38:05.278Z,7.05
2023-03-05T23:40:38.000Z,6.85
2023-03-05T23:43:05.504Z,8.20
2023-03-05T23:45:33.054Z,7.20
2023-03-05T23:48:00.689Z,7.72
2023-03-05T23:50:36.910Z,7.53
2023-03-05T23:53:04.724Z,7.53
2023-03-05T23:55:35.985Z,7.65
2023-03-05T23:58:03.841Z,7.65
